createdAt,value
2023-04-04T00:02:50.435Z,102510.47
2023-04-04T00:12:51.985Z,102514.44
2023-04-04T00:22:53.357Z,102502.19
2023-04-04T00:32:55.741Z,102517.19
2023-04-04T00:43:00.401Z,102518.09
2023-04-04T00:53:01.827Z,102509.88
2023-04-04T01:03:05.708Z,102499.16
2023-04-04T01:13:07.318Z,102495.34
2023-04-04T01:23:09.986Z,102490.31
2023-04-04T01:33:25.813Z,102488.22
2023-04-04T01:43:27.603Z,102484.41
2023-04-04T01:53:29.178Z,102468.66
2023-04-04T02:03:30.706Z,102467.84
2023-04-04T02:13:32.261Z,102470.75
2023-04-04T02:23:33.867Z,102470.06
2023-04-04T02:33:35.617Z,102472.69
2023-04-04T02:43:36.993Z,102466.13
2023-04-04T02:53:38.484Z,102458.03
2023-04-04T03:03:40.065Z,102454.66
2023-04-04T03:13:41.499Z,102455.09
2023-04-04T03:23:43.047Z,102461.78
2023-04-04T03:33:44.873Z,102460.75
2023-04-04T03:43:46.306Z,102447.22
2023-04-04T03:53:47.751Z,102454.84
2023-04-04T04:03:49.198Z,102432.97
2023-04-04T04:13:50.877Z,102431.78
2023-04-04T04:23:52.330Z,102431.50
2023-04-04T04:33:53.837Z,102435.28
2023-04-04T04:43:58.124Z,102430.25
2023-04-04T04:53:59.566Z,102421.56
2023-04-04T05:04:01.315Z,102428.78
2023-04-04T05:14:02.827Z,102431.78
2023-04-04T05:24:04.355Z,102438.19
2023-04-04T05:34:08.514Z,102453.63
2023-04-04T05:44:10.012Z,102445.78
2023-04-04T05:54:11.401Z,102439.75
2023-04-04T06:04:12.959Z,102464.25
2023-04-04T06:14:15.343Z,102488.59
2023-04-04T06:24:16.841Z,102488.97
2023-04-04T06:34:18.205Z,102499.03
2023-04-04T06:44:19.642Z,102502.00
2023-04-04T06:54:21.211Z,102500.78
2023-04-04T07:04:22.655Z,102502.50
2023-04-04T07:14:25.441Z,102503.56
2023-04-04T07:24:27.209Z,102506.81
2023-04-04T07:34:29.551Z,102485.00
2023-04-04T07:44:31.025Z,102485.34
2023-04-04T07:54:32.593Z,102478.47
2023-04-04T08:04:34.009Z,102477.38
2023-04-04T08:14:35.543Z,102491.69
2023-04-04T08:24:36.923Z,102486.16
2023-04-04T08:34:38.446Z,102492.56
2023-04-04T08:44:43.752Z,102476.00
2023-04-04T08:54:47.345Z,102483.69
2023-04-04T09:05:02.436Z,102477.59
2023-04-04T09:15:07.128Z,102456.72
2023-04-04T09:25:08.945Z,102457.91
2023-04-04T09:35:13.834Z,102460.72
2023-04-04T09:45:22.298Z,102470.88
2023-04-04T09:55:36.381Z,102456.75
2023-04-04T10:05:38.512Z,102445.66
2023-04-04T10:15:44.236Z,102435.00
2023-04-04T10:25:46.083Z,102429.31
2023-04-04T10:35:54.152Z,102425.69
2023-04-04T10:46:06.687Z,102406.63
2023-04-04T10:56:09.305Z,102397.44
2023-04-04T11:06:16.518Z,102394.13
2023-04-04T11:16:19.206Z,102372.25
2023-04-04T11:26:30.278Z,102373.53
2023-04-04T11:36:37.603Z,102366.41
2023-04-04T11:46:39.394Z,102354.06
2023-04-04T11:56:44.764Z,102350.81
2023-04-04T12:06:54.090Z,102347.16
2023-04-04T12:16:56.648Z,102334.28
2023-04-04T12:26:58.489Z,102308.88
2023-04-04T12:37:01.793Z,102303.09
2023-04-04T12:47:06.221Z,102272.38
2023-04-04T12:57:08.237Z,102275.19
2023-04-04T13:07:46.359Z,102265.50
2023-04-04T13:17:50.151Z,102247.78
2023-04-04T13:27:51.659Z,102244.28
2023-04-04T13:37:53.216Z,102202.94
2023-04-04T13:47:54.789Z,102208.97
2023-04-04T13:57:56.280Z,102198.16
2023-04-04T14:07:57.751Z,102180.16
2023-04-04T14:17:59.615Z,102171.63
2023-04-04T14:28:01.333Z,102165.53
2023-04-04T14:38:03.838Z,102153.78
2023-04-04T14:48:05.819Z,102141.47
2023-04-04T14:58:07.333Z,102136.66
2023-04-04T15:08:08.881Z,102129.13
2023-04-04T15:18:10.277Z,102121.34
2023-04-04T15:28:11.768Z,102111.59
2023-04-04T15:38:13.095Z,102108.94
2023-04-04T15:48:14.622Z,102100.34
2023-04-04T15:58:16.113Z,102099.38
2023-04-04T16:08:18.254Z,102093.38
2023-04-04T16:18:19.671Z,102083.53
2023-04-04T16:28:21.738Z,102074.41
2023-04-04T16:38:23.135Z,102081.34
2023-04-04T16:48:24.488Z,102064.00
2023-04-04T16:58:26.073Z,102067.09
2023-04-04T17:08:28.059Z,102057.38
2023-04-04T17:18:29.484Z,102063.19
2023-04-04T17:28:30.997Z,102058.63
2023-04-04T17:38:32.601Z,102050.56
2023-04-04T17:48:36.880Z,102045.84
2023-04-04T17:58:38.507Z,102053.75
2023-04-04T18:08:41.478Z,102044.72
2023-04-04T18:18:43.121Z,102047.97
2023-04-04T18:28:44.456Z,102040.81
2023-04-04T18:38:46.840Z,102036.44
2023-04-04T18:48:48.299Z,102043.91
2023-04-04T18:58:49.815Z,102050.34
2023-04-04T19:08:54.324Z,102056.22
2023-04-04T19:18:55.886Z,102063.38
2023-04-04T19:28:58.666Z,102077.06
2023-04-04T19:39:00.268Z,102074.19
2023-04-04T19:49:09.096Z,102057.25
2023-04-04T19:59:49.699Z,102062.47
2023-04-04T20:09:52.044Z,102064.13
2023-04-04T20:19:53.708Z,102051.16
2023-04-04T20:29:55.244Z,102062.16
2023-04-04T20:39:58.813Z,102070.28
2023-04-04T20:50:00.435Z,102067.41
2023-04-04T21:00:04.592Z,102055.41
2023-04-04T21:10:43.672Z,102051.88
2023-04-04T21:20:44.982Z,102053.06
2023-04-04T21:30:46.702Z,102048.88
2023-04-04T21:40:48.238Z,102027.38
2023-04-04T21:50:50.452Z,102024.41
2023-04-04T22:00:52.104Z,102018.03
2023-04-04T22:10:53.525Z,102005.34
2023-04-04T22:21:02.844Z,102014.91
2023-04-04T22:31:06.074Z,102007.13
2023-04-04T22:41:07.582Z,102008.66
2023-04-04T22:51:09.058Z,102005.16
2023-04-04T23:01:10.742Z,101991.50
2023-04-04T23:11:12.114Z,101998.22
2023-04-04T23:21:13.670Z,101991.00
2023-04-04T23:31:16.288Z,101987.59
2023-04-04T23:41:18.252Z,101976.81
2023-04-04T23:51:19.838Z,101967.09
